PWSweather.com
Personal Weather Stations
Station Observations
METEACHIET
Pas De Calais, AchietLeGrandFR

Pas De CalaisAchietLeGrandFR

Lat: 50.1302778, Lon: 2.78333333

Elevation: 406.8

Station Type: Davis VP2

http://meteo-achiet.shost.ca/index.php

Latest ConditionsUpdated 1:00:01 PM GMT+01:01 Sunday, Oct 22, 2017
Currently Today's Max Today's Min Today's Average
Temperature 54.3°F12.4°C 54.9°F12.7°C 47.7°F8.7°C 49.7°F9.8°C
Dew Point 46.2°F7.9°C 48.7°F9.3°C 44.4°F6.9°C 46.3°F7.9°C
Winds 4.6 mph WNW7.4 kmh WNW 8.1 mph WNW13.0 kmh WNW - 2.9 mph 4.7 kmh
Wind Gusts 9.2 mph14.8 kmh 20.7 mph33.3 kmh - -
Humidity 74% 95% 73% 88%
Pressure 29.96 in1014.6 mb 29.96 in1014.6 mb 29.82 in1009.8 mb -
Precipitation - 0.29 in7.4 mm - -
Hour Temp Dew Point Humidity Winds Wind Gusts Pressure Precip Precip Rate Daily Precip Total
01:00 PM 54.3°F12.4°C 46.2°F7.9°C 74% 4.6 mph WNW7.4 kmh WNW 9.2 mph14.8 kmh 29.96 in1014.6 mb - 0.00 in0.0 mm 0.29 in7.4 mm
12:50 PM 53.7°F12.1°C 46.0°F7.8°C 75% 8.1 mph WNW13.0 kmh WNW 12.7 mph20.4 kmh 29.96 in1014.6 mb - 0.00 in0.0 mm 0.29 in7.4 mm
12:40 PM 53.2°F11.8°C 44.7°F7.1°C 73% 6.9 mph WNW11.1 kmh WNW 12.7 mph20.4 kmh 29.96 in1014.6 mb - 0.00 in0.0 mm 0.29 in7.4 mm
12:30 PM 53.6°F12.0°C 46.2°F7.9°C 76% 6.9 mph W11.1 kmh W 20.7 mph33.3 kmh 29.96 in1014.6 mb - 0.00 in0.0 mm 0.29 in7.4 mm
12:20 PM 54.7°F12.6°C 47.0°F8.3°C 75% 5.8 mph W9.3 kmh W 10.4 mph16.7 kmh 29.95 in1014.2 mb - 0.00 in0.0 mm 0.29 in7.4 mm
12:10 PM 54.9°F12.7°C 47.8°F8.8°C 77% 3.5 mph WNW5.6 kmh WNW 5.8 mph9.3 kmh 29.95 in1014.2 mb - 0.00 in0.0 mm 0.29 in7.4 mm
12:00 PM 54.7°F12.6°C 47.3°F8.5°C 76% 2.3 mph WNW3.7 kmh WNW 11.5 mph18.5 kmh 29.95 in1014.2 mb - 0.00 in0.0 mm 0.29 in7.4 mm
11:50 AM 53.8°F12.1°C 47.8°F8.8°C 80% 3.5 mph WNW5.6 kmh WNW 11.5 mph18.5 kmh 29.95 in1014.2 mb - 0.00 in0.0 mm 0.29 in7.4 mm
11:40 AM 53.0°F11.7°C 47.4°F8.6°C 81% 3.5 mph WNW5.6 kmh WNW 6.9 mph11.1 kmh 29.95 in1014.2 mb - 0.00 in0.0 mm 0.29 in7.4 mm
11:30 AM 51.7°F10.9°C 46.7°F8.2°C 83% 3.5 mph WNW5.6 kmh WNW 9.2 mph14.8 kmh 29.95 in1014.2 mb - 0.00 in0.0 mm 0.29 in7.4 mm
11:20 AM 51.4°F10.8°C 46.4°F8.0°C 83% 1.2 mph WNW1.9 kmh WNW 1.2 mph1.9 kmh 29.95 in1014.2 mb - 0.00 in0.0 mm 0.29 in7.4 mm
11:10 AM 51.4°F10.8°C 47.0°F8.3°C 85% 4.6 mph W7.4 kmh W 11.5 mph18.5 kmh 29.94 in1013.9 mb - 0.00 in0.0 mm 0.29 in7.4 mm
11:00 AM 51.2°F10.7°C 48.4°F9.1°C 90% Calm Calm 1.2 mph1.9 kmh 29.94 in1013.9 mb - 0.00 in0.0 mm 0.29 in7.4 mm
10:50 AM 50.9°F10.5°C 48.4°F9.1°C 91% Calm Calm -- 29.94 in1013.9 mb - 0.00 in0.0 mm 0.29 in7.4 mm
10:40 AM 50.9°F10.5°C 48.7°F9.3°C 92% Calm Calm -- 29.94 in1013.9 mb - 0.00 in0.0 mm 0.29 in7.4 mm
10:30 AM 50.3°F10.2°C 48.1°F8.9°C 92% Calm Calm -- 29.94 in1013.9 mb - 0.01 in0.3 mm 0.29 in7.4 mm
10:20 AM 50.3°F10.2°C 48.1°F8.9°C 92% Calm Calm 3.5 mph5.6 kmh 29.94 in1013.9 mb - 0.01 in0.3 mm 0.29 in7.4 mm
10:10 AM 50.4°F10.2°C 48.7°F9.3°C 94% 1.2 mph WSW1.9 kmh WSW 3.5 mph5.6 kmh 29.94 in1013.9 mb - 0.00 in0.0 mm 0.28 in7.1 mm
10:00 AM 49.6°F9.8°C 47.7°F8.7°C 93% Calm Calm -- 29.93 in1013.5 mb - 0.00 in0.0 mm 0.28 in7.1 mm
09:50 AM 49.5°F9.7°C 47.5°F8.6°C 93% Calm Calm -- 29.93 in1013.5 mb - 0.00 in0.0 mm 0.28 in7.1 mm
09:40 AM 49.2°F9.6°C 47.5°F8.6°C 94% Calm Calm 2.3 mph3.7 kmh 29.93 in1013.5 mb - 0.00 in0.0 mm 0.28 in7.1 mm
09:30 AM 49.0°F9.4°C 47.3°F8.5°C 94% 2.3 mph WSW3.7 kmh WSW 5.8 mph9.3 kmh 29.93 in1013.5 mb - 0.00 in0.0 mm 0.28 in7.1 mm
09:20 AM 49.1°F9.5°C 47.7°F8.7°C 95% Calm Calm 1.2 mph1.9 kmh 29.93 in1013.5 mb - 0.00 in0.0 mm 0.28 in7.1 mm
09:10 AM 48.8°F9.3°C 47.4°F8.6°C 95% Calm Calm 2.3 mph3.7 kmh 29.92 in1013.2 mb - 0.00 in0.0 mm 0.28 in7.1 mm
09:00 AM 48.3°F9.1°C 46.9°F8.3°C 95% Calm Calm -- 29.92 in1013.2 mb - 0.00 in0.0 mm 0.28 in7.1 mm
08:50 AM 48.0°F8.9°C 46.7°F8.2°C 95% Calm Calm 5.8 mph9.3 kmh 29.92 in1013.2 mb - 0.00 in0.0 mm 0.28 in7.1 mm
08:40 AM 48.0°F8.9°C 46.6°F8.1°C 95% Calm Calm -- 29.92 in1013.2 mb - 0.00 in0.0 mm 0.28 in7.1 mm
08:30 AM 47.9°F8.8°C 46.5°F8.1°C 95% Calm Calm 1.2 mph1.9 kmh 29.91 in1012.9 mb - 0.01 in0.3 mm 0.28 in7.1 mm
08:20 AM 48.0°F8.9°C 46.6°F8.1°C 95% Calm Calm 2.3 mph3.7 kmh 29.91 in1012.9 mb - 0.02 in0.5 mm 0.28 in7.1 mm
08:10 AM 47.9°F8.8°C 46.6°F8.1°C 95% Calm Calm 6.9 mph11.1 kmh 29.91 in1012.9 mb - 0.00 in0.0 mm 0.26 in6.6 mm
08:00 AM 47.8°F8.8°C 46.4°F8.0°C 95% 1.2 mph S1.9 kmh S 2.3 mph3.7 kmh 29.90 in1012.5 mb - 0.00 in0.0 mm 0.26 in6.6 mm
07:50 AM 47.8°F8.8°C 46.4°F8.0°C 95% 1.2 mph SW1.9 kmh SW 5.8 mph9.3 kmh 29.90 in1012.5 mb - 0.01 in0.3 mm 0.26 in6.6 mm
07:40 AM 47.7°F8.7°C 46.3°F7.9°C 95% 3.5 mph SW5.6 kmh SW 11.5 mph18.5 kmh 29.89 in1012.2 mb - 0.00 in0.0 mm 0.25 in6.4 mm
07:30 AM 47.7°F8.7°C 46.3°F7.9°C 95% 1.2 mph SW1.9 kmh SW 5.8 mph9.3 kmh 29.89 in1012.2 mb - 0.00 in0.0 mm 0.25 in6.4 mm
07:20 AM 47.7°F8.7°C 46.3°F7.9°C 95% 4.6 mph SW7.4 kmh SW 8.1 mph13.0 kmh 29.88 in1011.9 mb - 0.00 in0.0 mm 0.25 in6.4 mm
07:10 AM 47.7°F8.7°C 46.3°F7.9°C 95% 2.3 mph SW3.7 kmh SW 8.1 mph13.0 kmh 29.88 in1011.9 mb - 0.00 in0.0 mm 0.25 in6.4 mm
07:00 AM 47.7°F8.7°C 46.1°F7.8°C 94% 1.2 mph S1.9 kmh S -- 29.87 in1011.5 mb - 0.05 in1.3 mm 0.25 in6.4 mm
06:50 AM 47.7°F8.7°C 46.1°F7.8°C 94% 3.5 mph SW5.6 kmh SW 11.5 mph18.5 kmh 29.87 in1011.5 mb - 0.02 in0.5 mm 0.21 in5.3 mm
06:40 AM 47.8°F8.8°C 46.2°F7.9°C 94% 3.5 mph SW5.6 kmh SW 6.9 mph11.1 kmh 29.87 in1011.5 mb - 0.02 in0.5 mm 0.19 in4.8 mm
06:30 AM 47.8°F8.8°C 46.2°F7.9°C 94% 1.2 mph SW1.9 kmh SW 6.9 mph11.1 kmh 29.86 in1011.2 mb - 0.02 in0.5 mm 0.17 in4.3 mm
06:20 AM 47.9°F8.8°C 46.0°F7.8°C 93% 2.3 mph SW3.7 kmh SW 6.9 mph11.1 kmh 29.86 in1011.2 mb - 0.03 in0.8 mm 0.17 in4.3 mm
06:10 AM 48.1°F8.9°C 46.1°F7.8°C 93% 3.5 mph WSW5.6 kmh WSW 9.2 mph14.8 kmh 29.86 in1011.2 mb - 0.02 in0.5 mm 0.13 in3.3 mm
06:00 AM 48.2°F9.0°C 46.2°F7.9°C 93% 3.5 mph SW5.6 kmh SW 10.4 mph16.7 kmh 29.86 in1011.2 mb - 0.02 in0.5 mm 0.12 in3.0 mm
05:50 AM 48.2°F9.0°C 46.2°F7.9°C 93% 3.5 mph WSW5.6 kmh WSW 12.7 mph20.4 kmh 29.86 in1011.2 mb - 0.01 in0.3 mm 0.10 in2.5 mm
05:40 AM 48.2°F9.0°C 46.0°F7.8°C 92% 3.5 mph SW5.6 kmh SW 6.9 mph11.1 kmh 29.85 in1010.8 mb - 0.01 in0.3 mm 0.09 in2.3 mm
05:30 AM 48.2°F9.0°C 46.0°F7.8°C 92% 2.3 mph SW3.7 kmh SW 8.1 mph13.0 kmh 29.85 in1010.8 mb - 0.00 in0.0 mm 0.09 in2.3 mm
05:20 AM 48.3°F9.1°C 46.0°F7.8°C 92% 2.3 mph SSW3.7 kmh SSW 6.9 mph11.1 kmh 29.85 in1010.8 mb - 0.01 in0.3 mm 0.09 in2.3 mm
05:10 AM 48.3°F9.1°C 46.1°F7.8°C 92% 3.5 mph WSW5.6 kmh WSW 11.5 mph18.5 kmh 29.85 in1010.8 mb - 0.00 in0.0 mm 0.08 in2.0 mm
05:00 AM 48.4°F9.1°C 46.2°F7.9°C 92% 2.3 mph SW3.7 kmh SW 8.1 mph13.0 kmh 29.84 in1010.5 mb - 0.00 in0.0 mm 0.08 in2.0 mm
04:50 AM 48.4°F9.1°C 46.2°F7.9°C 92% 3.5 mph SW5.6 kmh SW 8.1 mph13.0 kmh 29.84 in1010.5 mb - 0.01 in0.3 mm 0.08 in2.0 mm
04:40 AM 48.5°F9.2°C 46.3°F7.9°C 92% 4.6 mph WSW7.4 kmh WSW 8.1 mph13.0 kmh 29.84 in1010.5 mb - 0.01 in0.3 mm 0.07 in1.8 mm
04:30 AM 48.5°F9.2°C 46.0°F7.8°C 91% 2.3 mph WSW3.7 kmh WSW 4.6 mph7.4 kmh 29.84 in1010.5 mb - 0.01 in0.3 mm 0.06 in1.5 mm
04:20 AM 48.6°F9.2°C 46.1°F7.8°C 91% 1.2 mph SSW1.9 kmh SSW 5.8 mph9.3 kmh 29.83 in1010.2 mb - 0.01 in0.3 mm 0.06 in1.5 mm
04:10 AM 48.7°F9.3°C 46.2°F7.9°C 91% 3.5 mph SW5.6 kmh SW 9.2 mph14.8 kmh 29.83 in1010.2 mb - 0.01 in0.3 mm 0.05 in1.3 mm
04:00 AM 48.9°F9.4°C 46.1°F7.8°C 90% 2.3 mph SSW3.7 kmh SSW 6.9 mph11.1 kmh 29.83 in1010.2 mb - 0.01 in0.3 mm 0.04 in1.0 mm
03:50 AM 49.1°F9.5°C 46.3°F7.9°C 90% 3.5 mph SW5.6 kmh SW 9.2 mph14.8 kmh 29.84 in1010.5 mb - 0.01 in0.3 mm 0.03 in0.8 mm
03:40 AM 49.2°F9.6°C 46.1°F7.8°C 89% 1.2 mph SW1.9 kmh SW 1.2 mph1.9 kmh 29.83 in1010.2 mb - 0.01 in0.3 mm 0.02 in0.5 mm
03:30 AM 49.4°F9.7°C 46.3°F7.9°C 89% 3.5 mph SW5.6 kmh SW 9.2 mph14.8 kmh 29.84 in1010.5 mb - 0.00 in0.0 mm 0.02 in0.5 mm
03:20 AM 49.6°F9.8°C 46.2°F7.9°C 88% 3.5 mph SW5.6 kmh SW 10.4 mph16.7 kmh 29.84 in1010.5 mb - 0.01 in0.3 mm 0.02 in0.5 mm
03:10 AM 49.7°F9.8°C 46.0°F7.8°C 87% 4.6 mph SW7.4 kmh SW 11.5 mph18.5 kmh 29.83 in1010.2 mb - 0.00 in0.0 mm 0.01 in0.3 mm
03:00 AM 49.8°F9.9°C 46.1°F7.8°C 87% 3.5 mph SW5.6 kmh SW 5.8 mph9.3 kmh 29.83 in1010.2 mb - 0.00 in0.0 mm 0.01 in0.3 mm
02:50 AM 49.6°F9.8°C 45.9°F7.7°C 87% 4.6 mph WSW7.4 kmh WSW 11.5 mph18.5 kmh 29.83 in1010.2 mb - 0.00 in0.0 mm 0.01 in0.3 mm
02:40 AM 49.6°F9.8°C 46.2°F7.9°C 88% 2.3 mph WSW3.7 kmh WSW 5.8 mph9.3 kmh 29.83 in1010.2 mb - 0.00 in0.0 mm 0.01 in0.3 mm
02:30 AM 49.4°F9.7°C 46.0°F7.8°C 88% 3.5 mph WSW5.6 kmh WSW 11.5 mph18.5 kmh 29.83 in1010.2 mb - 0.00 in0.0 mm 0.01 in0.3 mm
02:20 AM 49.3°F9.6°C 45.9°F7.7°C 88% 5.8 mph SW9.3 kmh SW 11.5 mph18.5 kmh 29.83 in1010.2 mb - 0.00 in0.0 mm 0.01 in0.3 mm
02:10 AM 49.6°F9.8°C 45.6°F7.6°C 86% 5.8 mph SW9.3 kmh SW 9.2 mph14.8 kmh 29.83 in1010.2 mb - 0.01 in0.3 mm 0.01 in0.3 mm
02:00 AM 49.8°F9.9°C 45.5°F7.5°C 85% 4.6 mph SW7.4 kmh SW 10.4 mph16.7 kmh 29.83 in1010.2 mb - 0.00 in0.0 mm 0.00 in0.0 mm
01:50 AM 49.9°F9.9°C 45.6°F7.6°C 85% 5.8 mph SW9.3 kmh SW 16.1 mph25.9 kmh 29.82 in1009.8 mb - 0.00 in0.0 mm 0.00 in0.0 mm
01:40 AM 50.1°F10.1°C 45.4°F7.4°C 84% 6.9 mph SW11.1 kmh SW 16.1 mph25.9 kmh 29.82 in1009.8 mb - 0.00 in0.0 mm 0.00 in0.0 mm
01:30 AM 50.0°F10.0°C 45.1°F7.3°C 83% 5.8 mph SW9.3 kmh SW 12.7 mph20.4 kmh 29.83 in1010.2 mb - 0.00 in0.0 mm 0.00 in0.0 mm
01:20 AM 50.0°F10.0°C 45.0°F7.2°C 83% 6.9 mph SSW11.1 kmh SSW 11.5 mph18.5 kmh 29.83 in1010.2 mb - 0.00 in0.0 mm 0.00 in0.0 mm
01:10 AM 50.0°F10.0°C 45.0°F7.2°C 83% 4.6 mph SW7.4 kmh SW 15.0 mph24.1 kmh 29.82 in1009.8 mb - 0.00 in0.0 mm 0.00 in0.0 mm
01:00 AM 50.1°F10.1°C 44.8°F7.1°C 82% 4.6 mph WSW7.4 kmh WSW 10.4 mph16.7 kmh 29.82 in1009.8 mb - 0.00 in0.0 mm 0.00 in0.0 mm
12:50 AM 50.0°F10.0°C 44.7°F7.1°C 82% 5.8 mph SW9.3 kmh SW 10.4 mph16.7 kmh 29.82 in1009.8 mb - 0.00 in0.0 mm 0.00 in0.0 mm
12:40 AM 50.1°F10.1°C 44.8°F7.1°C 82% 3.5 mph SW5.6 kmh SW 6.9 mph11.1 kmh 29.82 in1009.8 mb - 0.00 in0.0 mm 0.00 in0.0 mm
12:30 AM 50.0°F10.0°C 44.4°F6.9°C 81% 4.6 mph SW7.4 kmh SW 13.8 mph22.2 kmh 29.82 in1009.8 mb - 0.00 in0.0 mm 0.00 in0.0 mm
12:20 AM 50.0°F10.0°C 44.4°F6.9°C 81% 4.6 mph SW7.4 kmh SW 11.5 mph18.5 kmh 29.83 in1010.2 mb - 0.00 in0.0 mm 0.00 in0.0 mm
12:10 AM 49.8°F9.9°C 44.5°F6.9°C 82% 4.6 mph SW7.4 kmh SW 6.9 mph11.1 kmh 29.82 in1009.8 mb - 0.00 in0.0 mm 0.00 in0.0 mm
12:00 AM 49.5°F9.7°C 44.6°F7.0°C 83% 2.3 mph SW3.7 kmh SW 8.1 mph13.0 kmh 29.82 in1009.8 mb - 0.00 in0.0 mm 0.00 in0.0 mm